createdAt,value
2022-12-13T00:00:14.716Z,16.60
2022-12-13T00:02:43.928Z,14.87
2022-12-13T00:05:15.476Z,19.60
2022-12-13T00:07:44.904Z,18.77
2022-12-13T00:10:14.144Z,18.83
2022-12-13T00:12:43.294Z,18.07
2022-12-13T00:15:13.509Z,21.27
2022-12-13T00:17:45.161Z,21.77
2022-12-13T00:20:15.672Z,24.70
2022-12-13T00:22:44.979Z,20.33
2022-12-13T00:25:14.644Z,19.83
2022-12-13T00:27:44.182Z,19.53
2022-12-13T00:30:13.946Z,17.73
2022-12-13T00:32:43.138Z,18.90
2022-12-13T00:35:12.486Z,18.03
2022-12-13T00:37:43.333Z,16.70
2022-12-13T00:40:13.260Z,18.10
2022-12-13T00:42:42.445Z,19.87
2022-12-13T00:45:13.474Z,19.13
2022-12-13T00:47:43.632Z,15.73
2022-12-13T00:50:12.885Z,17.67
2022-12-13T00:52:43.409Z,17.37
2022-12-13T00:55:13.002Z,17.60
2022-12-13T00:57:43.097Z,17.53
2022-12-13T01:00:13.185Z,18.17
2022-12-13T01:02:43.452Z,18.87
2022-12-13T01:05:13.679Z,17.53
2022-12-13T01:07:46.056Z,19.00
2022-12-13T01:10:15.562Z,21.37
2022-12-13T01:12:44.777Z,19.17
2022-12-13T01:15:14.148Z,20.43
2022-12-13T01:17:43.546Z,18.60
2022-12-13T01:20:13.578Z,21.37
2022-12-13T01:22:44.131Z,18.83
2022-12-13T01:25:13.800Z,17.67
2022-12-13T01:27:43.112Z,19.87
2022-12-13T01:30:12.943Z,20.27
2022-12-13T01:32:42.155Z,23.97
2022-12-13T01:35:13.961Z,21.97
2022-12-13T01:37:44.794Z,23.37
2022-12-13T01:40:16.032Z,23.87
2022-12-13T01:42:46.157Z,22.07
2022-12-13T01:45:25.644Z,21.47
2022-12-13T01:47:58.192Z,19.93
2022-12-13T01:50:31.894Z,19.90
2022-12-13T01:53:04.052Z,20.27
2022-12-13T01:55:41.489Z,18.37
2022-12-13T01:58:11.396Z,18.10
2022-12-13T02:00:41.527Z,16.30
2022-12-13T02:03:21.103Z,16.77
2022-12-13T02:06:00.537Z,15.63
2022-12-13T02:08:35.892Z,15.30
2022-12-13T02:11:06.523Z,15.60
2022-12-13T02:13:38.098Z,17.70
2022-12-13T02:16:22.549Z,16.90
2022-12-13T02:19:16.137Z,14.67
2022-12-13T02:21:56.747Z,16.00
2022-12-13T02:25:06.070Z,17.27
2022-12-13T02:28:04.853Z,16.90
2022-12-13T02:31:05.922Z,15.90
2022-12-13T02:33:57.377Z,16.80
2022-12-13T02:36:36.129Z,18.80
2022-12-13T02:39:12.095Z,15.23
2022-12-13T02:41:49.338Z,14.33
2022-12-13T02:44:23.512Z,14.67
2022-12-13T02:47:00.581Z,15.83
2022-12-13T02:49:37.447Z,17.17
2022-12-13T02:52:11.203Z,15.23
2022-12-13T02:54:45.596Z,16.30
2022-12-13T02:57:32.432Z,15.40
2022-12-13T03:00:09.895Z,17.07
2022-12-13T03:03:04.029Z,14.90
2022-12-13T03:06:02.516Z,13.27
2022-12-13T03:08:42.553Z,12.73
2022-12-13T03:11:16.423Z,15.10
2022-12-13T03:13:51.317Z,15.60
2022-12-13T03:16:28.816Z,13.93
2022-12-13T03:19:11.280Z,15.40
2022-12-13T03:21:48.106Z,15.60
2022-12-13T03:24:21.363Z,14.60
2022-12-13T03:26:52.540Z,14.63
2022-12-13T03:29:26.827Z,16.17
2022-12-13T03:32:00.136Z,15.87
2022-12-13T03:34:43.298Z,15.10
2022-12-13T03:37:18.437Z,16.10
2022-12-13T03:39:49.399Z,15.13
2022-12-13T03:42:18.869Z,15.03
2022-12-13T03:44:48.129Z,15.50
2022-12-13T03:47:19.715Z,13.33
2022-12-13T03:49:54.141Z,15.17
2022-12-13T03:52:26.413Z,14.97
2022-12-13T03:54:56.174Z,11.47
2022-12-13T03:57:28.110Z,16.07
2022-12-13T03:59:58.601Z,16.83
2022-12-13T04:02:31.402Z,17.40
2022-12-13T04:05:02.872Z,15.23
2022-12-13T04:07:35.340Z,14.87
2022-12-13T04:10:25.910Z,15.20
2022-12-13T04:13:13.328Z,14.50
2022-12-13T04:15:49.128Z,12.33
2022-12-13T04:18:19.759Z,12.53
2022-12-13T04:20:50.941Z,11.33
2022-12-13T04:23:21.303Z,12.43
2022-12-13T04:25:52.467Z,11.90
2022-12-13T04:28:23.111Z,12.47
2022-12-13T04:30:53.926Z,11.50
2022-12-13T04:33:26.234Z,10.40
2022-12-13T04:35:59.700Z,12.23
2022-12-13T04:38:29.214Z,11.93
2022-12-13T04:41:07.903Z,11.57
2022-12-13T04:43:39.778Z,9.17
2022-12-13T04:46:09.014Z,12.83
2022-12-13T04:48:39.998Z,11.17
2022-12-13T04:51:18.341Z,10.63
2022-12-13T04:53:50.711Z,12.27
2022-12-13T04:56:20.631Z,14.13
2022-12-13T04:58:50.546Z,12.57
2022-12-13T05:01:19.801Z,13.03
2022-12-13T05:03:50.252Z,12.47
2022-12-13T05:06:26.737Z,12.70
2022-12-13T05:09:01.046Z,13.30
2022-12-13T05:11:35.519Z,13.23
2022-12-13T05:14:07.676Z,16.10
2022-12-13T05:16:37.287Z,13.47
2022-12-13T05:19:06.623Z,12.80
2022-12-13T05:21:37.414Z,12.40
2022-12-13T05:24:08.037Z,14.70
2022-12-13T05:26:37.985Z,15.37
2022-12-13T05:29:08.754Z,12.87
2022-12-13T05:31:41.518Z,12.47
2022-12-13T05:34:13.068Z,11.67
2022-12-13T05:36:47.022Z,11.80
2022-12-13T05:39:27.762Z,14.17
2022-12-13T05:42:04.617Z,12.73
2022-12-13T05:44:35.848Z,12.70
2022-12-13T05:47:06.012Z,13.97
2022-12-13T05:49:36.897Z,14.33
2022-12-13T05:52:20.910Z,14.33
2022-12-13T05:54:57.087Z,14.63
2022-12-13T05:57:34.136Z,12.50
2022-12-13T06:00:04.869Z,12.33
2022-12-13T06:02:44.701Z,14.37
2022-12-13T06:05:15.173Z,13.00
2022-12-13T06:07:46.213Z,11.43
2022-12-13T06:10:21.892Z,12.97
2022-12-13T06:12:51.469Z,12.87
2022-12-13T06:15:23.812Z,13.30
2022-12-13T06:17:54.106Z,11.33
2022-12-13T06:20:24.816Z,14.73
2022-12-13T06:22:56.204Z,12.97
2022-12-13T06:25:30.812Z,12.53
2022-12-13T06:28:02.522Z,11.27
2022-12-13T06:30:32.363Z,13.13
2022-12-13T06:33:01.732Z,11.83
2022-12-13T06:35:33.130Z,13.67
2022-12-13T06:38:11.711Z,13.00
2022-12-13T06:40:42.633Z,13.27
2022-12-13T06:43:12.988Z,12.47
2022-12-13T06:45:44.559Z,13.03
2022-12-13T06:48:20.201Z,11.23
2022-12-13T06:50:56.160Z,12.80
2022-12-13T06:53:27.888Z,14.73
2022-12-13T06:55:57.233Z,13.27
2022-12-13T06:58:27.930Z,12.83
2022-12-13T07:01:03.821Z,12.17
2022-12-13T07:03:33.662Z,11.43
2022-12-13T07:06:06.875Z,13.53
2022-12-13T07:08:38.075Z,12.83
2022-12-13T07:11:08.128Z,12.10
2022-12-13T07:13:37.834Z,12.70
2022-12-13T07:16:08.073Z,11.27
2022-12-13T07:18:37.453Z,11.23
2022-12-13T07:21:08.832Z,10.87
2022-12-13T07:23:56.001Z,11.77
2022-12-13T07:26:25.561Z,13.17
2022-12-13T07:28:55.815Z,11.03
2022-12-13T07:31:25.936Z,12.17
2022-12-13T07:33:57.599Z,12.17
2022-12-13T07:36:26.815Z,11.23
2022-12-13T07:38:58.732Z,11.83
2022-12-13T07:41:28.687Z,12.43
2022-12-13T07:43:58.807Z,11.90
2022-12-13T07:46:33.269Z,12.00
2022-12-13T07:49:03.676Z,11.47
2022-12-13T07:51:36.837Z,12.73
2022-12-13T07:54:09.373Z,13.97
2022-12-13T07:56:38.576Z,10.87
2022-12-13T07:59:07.948Z,12.50
2022-12-13T08:01:38.824Z,11.37
2022-12-13T08:04:09.316Z,12.30
2022-12-13T08:06:39.483Z,11.80
2022-12-13T08:09:10.333Z,11.90
2022-12-13T08:11:39.914Z,13.07
2022-12-13T08:14:10.988Z,12.00
2022-12-13T08:16:41.436Z,12.90
2022-12-13T08:19:11.276Z,11.33
2022-12-13T08:21:54.683Z,13.70
2022-12-13T08:24:27.250Z,10.90
2022-12-13T08:27:01.557Z,12.70
2022-12-13T08:29:34.515Z,12.93
2022-12-13T08:32:07.981Z,11.97
2022-12-13T08:34:37.936Z,12.57
2022-12-13T08:37:07.467Z,13.23
2022-12-13T08:39:39.610Z,18.20
2022-12-13T08:42:15.734Z,19.73
2022-12-13T08:44:47.940Z,17.70
2022-12-13T08:47:24.070Z,20.00
2022-12-13T08:50:01.952Z,18.93
2022-12-13T08:52:39.721Z,16.40
2022-12-13T08:55:13.869Z,13.77
2022-12-13T08:57:45.412Z,28.63
2022-12-13T09:00:16.892Z,13.63
2022-12-13T09:02:46.166Z,14.83
2022-12-13T09:05:33.154Z,13.17
2022-12-13T09:08:23.992Z,12.53
2022-12-13T09:11:10.258Z,12.80
2022-12-13T09:13:43.271Z,11.77
2022-12-13T09:16:22.891Z,13.53
2022-12-13T09:18:54.898Z,12.43
2022-12-13T09:21:31.847Z,13.30
2022-12-13T09:24:02.912Z,18.70
2022-12-13T09:26:37.680Z,19.53
2022-12-13T09:29:10.667Z,15.30
2022-12-13T09:31:41.077Z,14.00
2022-12-13T09:34:10.781Z,14.27
2022-12-13T09:36:40.370Z,15.10
2022-12-13T09:39:11.822Z,14.53
2022-12-13T09:41:46.622Z,14.43
2022-12-13T09:44:31.042Z,13.07
2022-12-13T09:47:13.584Z,13.97
2022-12-13T09:49:52.555Z,13.17
2022-12-13T09:52:24.743Z,14.17
2022-12-13T09:54:57.919Z,13.30
2022-12-13T09:57:33.789Z,14.50
2022-12-13T10:00:06.424Z,12.87
2022-12-13T10:02:46.569Z,14.70
2022-12-13T10:05:34.236Z,13.27
2022-12-13T10:08:10.097Z,12.47
2022-12-13T10:10:39.681Z,13.17
2022-12-13T10:13:18.342Z,12.37
2022-12-13T10:15:51.687Z,12.13
2022-12-13T10:18:32.506Z,12.73
2022-12-13T10:21:04.850Z,13.23
2022-12-13T10:23:52.921Z,13.17
2022-12-13T10:26:25.149Z,13.60
2022-12-13T10:29:05.936Z,13.07
2022-12-13T10:31:43.598Z,12.37
2022-12-13T10:34:23.919Z,13.40
2022-12-13T10:36:54.200Z,12.10
2022-12-13T10:39:41.201Z,11.43
2022-12-13T10:42:22.964Z,13.97
2022-12-13T10:45:15.494Z,14.07
2022-12-13T10:47:46.985Z,13.30
2022-12-13T10:50:27.298Z,12.93
2022-12-13T10:52:58.573Z,12.03
2022-12-13T10:55:33.119Z,11.83
2022-12-13T10:58:07.166Z,11.63
2022-12-13T11:00:41.572Z,13.20
2022-12-13T11:03:16.145Z,11.63
2022-12-13T11:05:50.183Z,11.60
2022-12-13T11:08:26.697Z,10.97
2022-12-13T11:11:00.823Z,11.53
2022-12-13T11:13:38.580Z,11.10
2022-12-13T11:16:26.250Z,12.70
2022-12-13T11:18:57.699Z,10.37
2022-12-13T11:21:32.440Z,10.43
2022-12-13T11:24:04.904Z,11.90
2022-12-13T11:26:37.811Z,10.40
2022-12-13T11:29:30.218Z,11.77
2022-12-13T11:32:22.738Z,11.10
2022-12-13T11:35:05.462Z,8.73
2022-12-13T11:37:46.667Z,10.27
2022-12-13T11:40:18.680Z,10.60
2022-12-13T11:42:54.049Z,10.87
2022-12-13T11:45:28.311Z,9.70
2022-12-13T11:48:05.761Z,13.17
2022-12-13T11:50:38.729Z,10.23
2022-12-13T11:53:28.463Z,10.00
2022-12-13T11:56:07.781Z,10.03
2022-12-13T12:01:40.318Z,10.97
2022-12-13T12:04:20.771Z,11.23
2022-12-13T12:06:56.715Z,10.90
2022-12-13T12:09:29.117Z,9.50
2022-12-13T12:12:03.728Z,10.80
2022-12-13T12:14:41.178Z,12.07
2022-12-13T12:17:15.501Z,8.60
2022-12-13T12:19:50.688Z,11.13
2022-12-13T12:22:36.470Z,10.13
2022-12-13T12:25:23.815Z,10.40
2022-12-13T12:28:03.668Z,10.07
2022-12-13T12:30:44.941Z,9.80
2022-12-13T12:33:24.653Z,10.50
2022-12-13T12:36:22.618Z,10.10
2022-12-13T12:39:27.453Z,9.07
2022-12-13T12:42:25.012Z,10.73
2022-12-13T12:45:10.491Z,10.80
2022-12-13T12:48:45.423Z,11.63
2022-12-13T12:50:49.522Z,10.57
2022-12-13T12:53:35.518Z,12.53
2022-12-13T12:56:21.405Z,12.37
2022-12-13T12:59:01.555Z,10.60
2022-12-13T13:01:46.473Z,10.53
2022-12-13T13:04:22.892Z,9.67
2022-12-13T13:07:01.791Z,10.03
2022-12-13T13:09:34.319Z,9.77
2022-12-13T13:12:28.564Z,8.73
2022-12-13T13:14:57.663Z,8.57
2022-12-13T13:17:46.520Z,7.90
2022-12-13T13:20:25.930Z,8.33
2022-12-13T13:23:38.794Z,10.53
2022-12-13T13:26:16.443Z,10.00
2022-12-13T13:28:47.355Z,9.03
2022-12-13T13:31:16.678Z,9.63
2022-12-13T13:33:48.886Z,7.73
2022-12-13T13:36:47.265Z,8.77
2022-12-13T13:39:20.578Z,8.37
2022-12-13T13:42:09.130Z,8.00
2022-12-13T13:45:04.330Z,8.40
2022-12-13T13:47:42.957Z,8.00
2022-12-13T13:50:42.883Z,9.30
2022-12-13T13:53:46.480Z,9.20
2022-12-13T13:56:35.455Z,10.67
2022-12-13T14:00:00.203Z,11.03
2022-12-13T14:03:32.944Z,8.47
2022-12-13T14:06:54.631Z,9.03
2022-12-13T14:10:14.554Z,8.50
2022-12-13T14:13:45.057Z,8.30
2022-12-13T14:17:08.103Z,8.57
2022-12-13T14:20:22.379Z,9.27
2022-12-13T14:22:56.356Z,9.03
2022-12-13T14:25:52.646Z,9.07
2022-12-13T14:28:39.146Z,9.83
2022-12-13T14:31:21.566Z,9.40
2022-12-13T14:33:54.323Z,12.83
2022-12-13T14:36:29.591Z,10.10
2022-12-13T14:39:03.273Z,9.23
2022-12-13T14:41:33.589Z,9.57
2022-12-13T14:44:22.517Z,8.87
2022-12-13T14:46:53.998Z,10.70
2022-12-13T14:49:29.609Z,8.23
2022-12-13T14:52:03.967Z,10.40
2022-12-13T14:54:42.599Z,10.30
2022-12-13T14:57:20.590Z,10.63
2022-12-13T14:59:52.112Z,8.73
2022-12-13T15:02:30.753Z,9.67
2022-12-13T15:05:03.933Z,10.27
2022-12-13T15:07:36.486Z,10.23
2022-12-13T15:10:24.626Z,9.63
2022-12-13T15:12:55.363Z,10.50
2022-12-13T15:15:29.060Z,11.63
2022-12-13T15:18:18.002Z,10.77
2022-12-13T15:20:56.369Z,12.97
2022-12-13T15:23:33.570Z,11.33
2022-12-13T15:26:28.605Z,12.27
2022-12-13T15:29:01.232Z,11.40
2022-12-13T15:31:40.173Z,9.73
2022-12-13T15:34:39.626Z,11.50
2022-12-13T15:37:29.806Z,9.43
2022-12-13T15:40:07.980Z,10.97
2022-12-13T15:42:40.350Z,9.47
2022-12-13T15:45:21.535Z,11.70
2022-12-13T15:47:51.598Z,11.10
2022-12-13T15:50:34.582Z,10.13
2022-12-13T15:53:20.423Z,10.40
2022-12-13T15:55:51.066Z,10.47
2022-12-13T15:58:27.175Z,8.93
2022-12-13T16:00:58.334Z,10.13
2022-12-13T16:03:29.443Z,11.30
2022-12-13T16:05:59.542Z,8.63
2022-12-13T16:08:34.662Z,11.07
2022-12-13T16:11:04.874Z,10.80
2022-12-13T16:13:36.780Z,10.43
2022-12-13T16:16:26.742Z,10.87
2022-12-13T16:18:59.724Z,11.00
2022-12-13T16:21:30.184Z,11.90
2022-12-13T16:24:00.825Z,11.00
2022-12-13T16:26:31.428Z,11.63
2022-12-13T16:29:00.647Z,10.90
2022-12-13T16:31:35.824Z,11.70
2022-12-13T16:34:07.221Z,13.20
2022-12-13T16:36:39.658Z,11.67
2022-12-13T16:39:13.339Z,10.97
2022-12-13T16:41:46.241Z,9.07
2022-12-13T16:44:23.791Z,10.50
2022-12-13T16:47:18.242Z,11.57
2022-12-13T16:49:44.218Z,9.23
2022-12-13T16:52:13.710Z,11.77
2022-12-13T16:54:47.292Z,10.37
2022-12-13T16:57:17.852Z,12.30
2022-12-13T16:59:47.219Z,12.60
2022-12-13T17:02:19.054Z,11.93
2022-12-13T17:04:48.484Z,12.57
2022-12-13T17:07:18.129Z,12.07
2022-12-13T17:09:50.017Z,12.13
2022-12-13T17:12:19.446Z,11.53
2022-12-13T17:14:49.328Z,12.80
2022-12-13T17:17:18.939Z,12.03
2022-12-13T17:19:48.308Z,13.73
2022-12-13T17:22:21.270Z,12.30
2022-12-13T17:24:52.567Z,11.50
2022-12-13T17:27:24.577Z,12.73
2022-12-13T17:29:55.142Z,13.17
2022-12-13T17:32:24.595Z,12.13
2022-12-13T17:34:54.522Z,12.60
2022-12-13T17:37:24.035Z,13.87
2022-12-13T17:39:54.737Z,12.00
2022-12-13T17:42:24.169Z,13.27
2022-12-13T17:44:56.195Z,12.87
2022-12-13T17:47:25.697Z,13.63
2022-12-13T17:49:55.278Z,14.93
2022-12-13T17:52:24.703Z,12.67
2022-12-13T17:54:55.676Z,12.23
2022-12-13T17:57:33.758Z,14.47
2022-12-13T18:00:04.045Z,13.77
2022-12-13T18:02:41.831Z,14.43
2022-12-13T18:05:26.310Z,12.67
2022-12-13T18:07:57.900Z,14.10
2022-12-13T18:10:36.804Z,13.23
2022-12-13T18:13:06.361Z,13.90
2022-12-13T18:15:39.884Z,12.83
2022-12-13T18:18:11.693Z,14.57
2022-12-13T18:20:44.079Z,13.93
2022-12-13T18:23:14.441Z,13.87
2022-12-13T18:25:46.226Z,13.87
2022-12-13T18:28:16.022Z,13.73
2022-12-13T18:30:45.495Z,14.83
2022-12-13T18:33:14.929Z,12.73
2022-12-13T18:35:44.326Z,14.23
2022-12-13T18:38:14.141Z,13.00
2022-12-13T18:40:45.367Z,13.87
2022-12-13T18:43:15.963Z,14.10
2022-12-13T18:45:45.978Z,16.57
2022-12-13T18:48:15.503Z,16.53
2022-12-13T18:50:48.750Z,15.00
2022-12-13T18:53:18.290Z,13.33
2022-12-13T18:55:49.334Z,12.90
2022-12-13T18:58:18.875Z,13.60
2022-12-13T19:00:50.679Z,12.00
2022-12-13T19:03:20.582Z,12.20
2022-12-13T19:05:54.532Z,13.37
2022-12-13T19:08:26.239Z,12.60
2022-12-13T19:10:58.055Z,13.40
2022-12-13T19:13:29.087Z,12.93
2022-12-13T19:16:05.346Z,11.97
2022-12-13T19:18:36.984Z,11.93
2022-12-13T19:21:12.562Z,11.70
2022-12-13T19:23:42.988Z,10.53
2022-12-13T19:26:16.260Z,10.67
2022-12-13T19:28:46.757Z,12.80
2022-12-13T19:31:17.342Z,12.13
2022-12-13T19:33:47.752Z,10.67
2022-12-13T19:36:17.451Z,11.33
2022-12-13T19:38:47.495Z,9.23
2022-12-13T19:41:22.007Z,11.70
2022-12-13T19:43:53.288Z,11.93
2022-12-13T19:46:23.594Z,13.33
2022-12-13T19:48:53.482Z,12.37
2022-12-13T19:51:24.279Z,10.70
2022-12-13T19:53:54.237Z,11.03
2022-12-13T19:56:26.228Z,13.53
2022-12-13T19:58:55.834Z,13.80
2022-12-13T20:01:25.668Z,10.93
2022-12-13T20:03:58.642Z,12.90
2022-12-13T20:06:33.992Z,12.50
2022-12-13T20:09:04.681Z,13.97
2022-12-13T20:11:38.271Z,12.90
2022-12-13T20:14:10.102Z,12.30
2022-12-13T20:16:39.705Z,13.80
2022-12-13T20:19:14.890Z,11.97
2022-12-13T20:22:07.369Z,9.90
2022-12-13T20:24:38.832Z,12.57
2022-12-13T20:27:10.366Z,11.13
2022-12-13T20:29:40.726Z,11.47
2022-12-13T20:32:11.105Z,11.10
2022-12-13T20:34:44.892Z,11.53
2022-12-13T20:37:16.201Z,10.77
2022-12-13T20:39:45.470Z,10.93
2022-12-13T20:42:17.137Z,11.80
2022-12-13T20:44:48.566Z,10.30
2022-12-13T20:47:18.678Z,12.07
2022-12-13T20:49:52.548Z,11.17
2022-12-13T20:52:23.922Z,10.77
2022-12-13T20:54:53.871Z,12.33
2022-12-13T20:57:28.923Z,11.50
2022-12-13T20:59:59.408Z,12.97
2022-12-13T21:02:29.120Z,13.83
2022-12-13T21:04:58.821Z,11.47
2022-12-13T21:07:42.252Z,12.10
2022-12-13T21:10:17.797Z,12.20
2022-12-13T21:12:59.603Z,12.23
2022-12-13T21:15:29.114Z,10.13
2022-12-13T21:18:00.357Z,11.23
2022-12-13T21:20:33.408Z,12.13
2022-12-13T21:23:03.699Z,13.27
2022-12-13T21:25:33.562Z,11.10
2022-12-13T21:28:04.885Z,14.03
2022-12-13T21:30:34.289Z,10.87
2022-12-13T21:33:07.806Z,11.47
2022-12-13T21:35:38.708Z,12.67
2022-12-13T21:38:08.072Z,11.30
2022-12-13T21:40:40.953Z,10.87
2022-12-13T21:43:15.368Z,11.20
2022-12-13T21:45:45.315Z,12.47
2022-12-13T21:48:17.129Z,13.13
2022-12-13T21:50:51.248Z,10.13
2022-12-13T21:53:20.634Z,17.20
2022-12-13T21:55:50.279Z,12.47
2022-12-13T21:58:41.636Z,12.07
2022-12-13T22:01:11.211Z,11.63
2022-12-13T22:03:40.781Z,10.57
2022-12-13T22:06:11.089Z,12.00
2022-12-13T22:08:41.277Z,14.90
2022-12-13T22:11:21.423Z,11.63
2022-12-13T22:13:57.089Z,10.23
2022-12-13T22:16:26.330Z,12.43
2022-12-13T22:19:03.176Z,9.87
2022-12-13T22:21:33.732Z,10.80
2022-12-13T22:24:03.946Z,11.33
2022-12-13T22:26:33.377Z,10.40
2022-12-13T22:29:05.332Z,13.17
2022-12-13T22:31:37.412Z,8.97
2022-12-13T22:34:08.518Z,17.33
2022-12-13T22:36:39.027Z,11.17
2022-12-13T22:39:18.078Z,10.80
2022-12-13T22:41:49.775Z,9.70
2022-12-13T22:44:23.442Z,9.47
2022-12-13T22:46:52.917Z,10.93
2022-12-13T22:49:23.182Z,9.43
2022-12-13T22:51:53.413Z,14.17
2022-12-13T22:54:24.476Z,9.53
2022-12-13T22:56:55.649Z,9.93
2022-12-13T22:59:27.893Z,10.10
2022-12-13T23:02:03.089Z,8.80
2022-12-13T23:04:34.910Z,12.60
2022-12-13T23:07:05.457Z,8.50
2022-12-13T23:09:34.769Z,9.87
2022-12-13T23:12:26.434Z,10.90
2022-12-13T23:15:00.260Z,12.80
2022-12-13T23:17:29.718Z,10.80
2022-12-13T23:19:59.069Z,8.10
2022-12-13T23:22:28.317Z,9.63
2022-12-13T23:24:59.223Z,9.03
2022-12-13T23:27:29.542Z,10.53
2022-12-13T23:30:16.799Z,8.90
2022-12-13T23:32:46.205Z,9.53
2022-12-13T23:35:16.458Z,9.47
2022-12-13T23:37:45.683Z,11.63
2022-12-13T23:40:18.331Z,8.63
2022-12-13T23:42:48.143Z,9.43
2022-12-13T23:45:19.588Z,8.63
2022-12-13T23:47:52.994Z,9.07
2022-12-13T23:50:24.335Z,9.07
2022-12-13T23:52:53.806Z,10.23
2022-12-13T23:55:23.098Z,10.17
2022-12-13T23:57:54.632Z,9.60
